sensor_id;sensor_type;location;lat;lon;timestamp;P1;durP1;ratioP1;P2;durP2;ratioP2
4051;SDS011;2040;50.924;11.604;2023-03-01T00:01:16;15.93;;;9.80;;
4051;SDS011;2040;50.924;11.604;2023-03-01T00:03:46;17.53;;;9.50;;
4051;SDS011;2040;50.924;11.604;2023-03-01T00:06:12;17.20;;;8.10;;
4051;SDS011;2040;50.924;11.604;2023-03-01T00:08:38;15.53;;;8.07;;
4051;SDS011;2040;50.924;11.604;2023-03-01T00:13:50;12.10;;;7.13;;
4051;SDS011;2040;50.924;11.604;2023-03-01T00:16:18;16.53;;;7.07;;
4051;SDS011;2040;50.924;11.604;2023-03-01T00:18:47;13.97;;;8.17;;
4051;SDS011;2040;50.924;11.604;2023-03-01T00:21:12;17.13;;;8.77;;
4051;SDS011;2040;50.924;11.604;2023-03-01T00:23:38;12.07;;;8.00;;
4051;SDS011;2040;50.924;11.604;2023-03-01T00:26:08;12.70;;;8.00;;
4051;SDS011;2040;50.924;11.604;2023-03-01T00:28:35;15.60;;;7.60;;
4051;SDS011;2040;50.924;11.604;2023-03-01T00:31:05;18.07;;;7.67;;
4051;SDS011;2040;50.924;11.604;2023-03-01T00:33:32;14.93;;;7.93;;
4051;SDS011;2040;50.924;11.604;2023-03-01T00:35:58;11.27;;;6.80;;
4051;SDS011;2040;50.924;11.604;2023-03-01T00:38:26;12.47;;;7.00;;
4051;SDS011;2040;50.924;11.604;2023-03-01T00:40:52;16.90;;;8.07;;
4051;SDS011;2040;50.924;11.604;2023-03-01T00:43:18;15.00;;;8.00;;
4051;SDS011;2040;50.924;11.604;2023-03-01T00:45:43;15.57;;;7.67;;
4051;SDS011;2040;50.924;11.604;2023-03-01T00:48:09;22.97;;;8.50;;
4051;SDS011;2040;50.924;11.604;2023-03-01T00:50:34;13.13;;;6.73;;
4051;SDS011;2040;50.924;11.604;2023-03-01T00:53:00;14.33;;;7.60;;
4051;SDS011;2040;50.924;11.604;2023-03-01T00:55:25;14.67;;;7.03;;
4051;SDS011;2040;50.924;11.604;2023-03-01T00:57:51;16.73;;;8.13;;
4051;SDS011;2040;50.924;11.604;2023-03-01T01:00:17;20.03;;;7.10;;
4051;SDS011;2040;50.924;11.604;2023-03-01T01:02:44;15.33;;;7.63;;
4051;SDS011;2040;50.924;11.604;2023-03-01T01:05:10;15.40;;;7.40;;
4051;SDS011;2040;50.924;11.604;2023-03-01T01:07:36;15.40;;;7.90;;
4051;SDS011;2040;50.924;11.604;2023-03-01T01:10:02;20.10;;;9.60;;
4051;SDS011;2040;50.924;11.604;2023-03-01T01:12:27;11.10;;;5.83;;
4051;SDS011;2040;50.924;11.604;2023-03-01T01:14:53;16.83;;;7.20;;
4051;SDS011;2040;50.924;11.604;2023-03-01T01:17:18;12.77;;;7.33;;
4051;SDS011;2040;50.924;11.604;2023-03-01T01:19:44;16.80;;;7.53;;
4051;SDS011;2040;50.924;11.604;2023-03-01T01:22:10;17.43;;;7.73;;
4051;SDS011;2040;50.924;11.604;2023-03-01T01:24:35;14.80;;;7.53;;
4051;SDS011;2040;50.924;11.604;2023-03-01T01:27:01;16.87;;;8.03;;
4051;SDS011;2040;50.924;11.604;2023-03-01T01:29:26;23.53;;;8.30;;
4051;SDS011;2040;50.924;11.604;2023-03-01T01:31:52;17.90;;;7.20;;
4051;SDS011;2040;50.924;11.604;2023-03-01T01:34:18;17.97;;;7.63;;
4051;SDS011;2040;50.924;11.604;2023-03-01T01:36:49;19.73;;;8.30;;
4051;SDS011;2040;50.924;11.604;2023-03-01T01:39:19;20.13;;;8.73;;
4051;SDS011;2040;50.924;11.604;2023-03-01T01:41:45;17.87;;;7.23;;
4051;SDS011;2040;50.924;11.604;2023-03-01T01:44:26;12.90;;;8.30;;
4051;SDS011;2040;50.924;11.604;2023-03-01T01:46:54;19.40;;;9.13;;
4051;SDS011;2040;50.924;11.604;2023-03-01T01:52:04;18.87;;;8.90;;
4051;SDS011;2040;50.924;11.604;2023-03-01T01:54:37;15.93;;;7.80;;
4051;SDS011;2040;50.924;11.604;2023-03-01T01:57:07;15.63;;;7.93;;
4051;SDS011;2040;50.924;11.604;2023-03-01T01:59:37;17.10;;;8.20;;
4051;SDS011;2040;50.924;11.604;2023-03-01T02:02:05;16.90;;;7.80;;
4051;SDS011;2040;50.924;11.604;2023-03-01T02:04:31;15.83;;;7.57;;
4051;SDS011;2040;50.924;11.604;2023-03-01T02:07:01;17.47;;;9.07;;
4051;SDS011;2040;50.924;11.604;2023-03-01T02:09:38;15.70;;;7.07;;
4051;SDS011;2040;50.924;11.604;2023-03-01T02:12:05;14.17;;;7.43;;
4051;SDS011;2040;50.924;11.604;2023-03-01T02:14:32;13.03;;;8.13;;
4051;SDS011;2040;50.924;11.604;2023-03-01T02:16:57;16.17;;;6.73;;
4051;SDS011;2040;50.924;11.604;2023-03-01T02:19:30;14.83;;;7.30;;
4051;SDS011;2040;50.924;11.604;2023-03-01T02:22:25;13.50;;;7.83;;
4051;SDS011;2040;50.924;11.604;2023-03-01T02:30:40;15.80;;;8.63;;
4051;SDS011;2040;50.924;11.604;2023-03-01T02:33:33;16.87;;;8.40;;
4051;SDS011;2040;50.924;11.604;2023-03-01T02:36:01;15.67;;;7.40;;
4051;SDS011;2040;50.924;11.604;2023-03-01T02:38:31;17.60;;;8.50;;
4051;SDS011;2040;50.924;11.604;2023-03-01T02:40:57;14.20;;;6.73;;
4051;SDS011;2040;50.924;11.604;2023-03-01T02:43:25;19.30;;;8.57;;
4051;SDS011;2040;50.924;11.604;2023-03-01T02:45:57;17.93;;;6.50;;
4051;SDS011;2040;50.924;11.604;2023-03-01T02:48:27;18.90;;;9.50;;
4051;SDS011;2040;50.924;11.604;2023-03-01T02:51:02;14.97;;;7.40;;
4051;SDS011;2040;50.924;11.604;2023-03-01T02:53:39;11.27;;;7.30;;
4051;SDS011;2040;50.924;11.604;2023-03-01T02:56:15;15.63;;;7.00;;
4051;SDS011;2040;50.924;11.604;2023-03-01T02:58:41;14.97;;;8.60;;
4051;SDS011;2040;50.924;11.604;2023-03-01T03:01:10;18.37;;;8.77;;
4051;SDS011;2040;50.924;11.604;2023-03-01T03:03:40;17.70;;;8.30;;
4051;SDS011;2040;50.924;11.604;2023-03-01T03:06:06;17.50;;;9.00;;
4051;SDS011;2040;50.924;11.604;2023-03-01T03:08:31;15.47;;;8.30;;
4051;SDS011;2040;50.924;11.604;2023-03-01T03:10:57;23.73;;;9.20;;
4051;SDS011;2040;50.924;11.604;2023-03-01T03:13:23;20.00;;;9.00;;
4051;SDS011;2040;50.924;11.604;2023-03-01T03:15:53;17.17;;;8.30;;
4051;SDS011;2040;50.924;11.604;2023-03-01T03:18:20;14.53;;;8.07;;
4051;SDS011;2040;50.924;11.604;2023-03-01T03:20:46;17.50;;;8.70;;
4051;SDS011;2040;50.924;11.604;2023-03-01T03:23:17;13.30;;;7.67;;
4051;SDS011;2040;50.924;11.604;2023-03-01T03:25:43;20.37;;;9.97;;
4051;SDS011;2040;50.924;11.604;2023-03-01T03:28:09;18.47;;;9.43;;
4051;SDS011;2040;50.924;11.604;2023-03-01T03:30:36;13.63;;;8.27;;
4051;SDS011;2040;50.924;11.604;2023-03-01T03:33:04;16.90;;;8.97;;
4051;SDS011;2040;50.924;11.604;2023-03-01T03:35:34;24.43;;;7.77;;
4051;SDS011;2040;50.924;11.604;2023-03-01T03:38:05;14.63;;;8.00;;
4051;SDS011;2040;50.924;11.604;2023-03-01T03:40:40;18.07;;;8.27;;
4051;SDS011;2040;50.924;11.604;2023-03-01T03:43:08;15.47;;;7.77;;
4051;SDS011;2040;50.924;11.604;2023-03-01T03:45:36;14.50;;;9.10;;
4051;SDS011;2040;50.924;11.604;2023-03-01T03:48:03;18.27;;;8.50;;
4051;SDS011;2040;50.924;11.604;2023-03-01T03:50:30;26.53;;;10.77;;
4051;SDS011;2040;50.924;11.604;2023-03-01T03:52:56;19.93;;;7.73;;
4051;SDS011;2040;50.924;11.604;2023-03-01T03:55:22;18.10;;;8.80;;
4051;SDS011;2040;50.924;11.604;2023-03-01T03:57:48;23.17;;;10.50;;
4051;SDS011;2040;50.924;11.604;2023-03-01T04:00:20;16.70;;;8.17;;
4051;SDS011;2040;50.924;11.604;2023-03-01T04:02:49;17.93;;;7.00;;
4051;SDS011;2040;50.924;11.604;2023-03-01T04:05:15;13.53;;;8.33;;
4051;SDS011;2040;50.924;11.604;2023-03-01T04:07:43;19.90;;;8.50;;
4051;SDS011;2040;50.924;11.604;2023-03-01T04:10:10;17.47;;;8.50;;
4051;SDS011;2040;50.924;11.604;2023-03-01T04:12:39;23.67;;;8.00;;
4051;SDS011;2040;50.924;11.604;2023-03-01T04:15:05;14.10;;;7.87;;
4051;SDS011;2040;50.924;11.604;2023-03-01T04:17:45;16.07;;;8.10;;
4051;SDS011;2040;50.924;11.604;2023-03-01T04:20:22;14.70;;;8.37;;
4051;SDS011;2040;50.924;11.604;2023-03-01T04:22:57;19.63;;;8.73;;
4051;SDS011;2040;50.924;11.604;2023-03-01T04:25:36;19.53;;;9.83;;
4051;SDS011;2040;50.924;11.604;2023-03-01T04:28:03;21.27;;;9.37;;
4051;SDS011;2040;50.924;11.604;2023-03-01T04:30:29;13.23;;;6.90;;
4051;SDS011;2040;50.924;11.604;2023-03-01T04:32:54;16.27;;;7.17;;
4051;SDS011;2040;50.924;11.604;2023-03-01T04:35:20;23.87;;;9.40;;
4051;SDS011;2040;50.924;11.604;2023-03-01T04:37:45;19.60;;;8.00;;
4051;SDS011;2040;50.924;11.604;2023-03-01T04:40:11;14.70;;;7.70;;
4051;SDS011;2040;50.924;11.604;2023-03-01T04:42:40;15.40;;;8.00;;
4051;SDS011;2040;50.924;11.604;2023-03-01T04:45:06;18.47;;;8.03;;
4051;SDS011;2040;50.924;11.604;2023-03-01T04:47:38;14.60;;;7.37;;
4051;SDS011;2040;50.924;11.604;2023-03-01T04:50:04;16.83;;;9.00;;
4051;SDS011;2040;50.924;11.604;2023-03-01T04:52:30;19.80;;;9.90;;
4051;SDS011;2040;50.924;11.604;2023-03-01T04:54:56;17.40;;;8.90;;
4051;SDS011;2040;50.924;11.604;2023-03-01T04:57:22;23.60;;;9.57;;
4051;SDS011;2040;50.924;11.604;2023-03-01T04:59:47;13.63;;;7.07;;
4051;SDS011;2040;50.924;11.604;2023-03-01T05:02:13;17.10;;;8.30;;
4051;SDS011;2040;50.924;11.604;2023-03-01T05:04:39;21.40;;;9.33;;
4051;SDS011;2040;50.924;11.604;2023-03-01T05:07:04;15.23;;;7.80;;
4051;SDS011;2040;50.924;11.604;2023-03-01T05:09:30;16.13;;;8.27;;
4051;SDS011;2040;50.924;11.604;2023-03-01T05:11:55;18.53;;;8.30;;
4051;SDS011;2040;50.924;11.604;2023-03-01T05:14:21;18.37;;;8.13;;
4051;SDS011;2040;50.924;11.604;2023-03-01T05:16:46;18.57;;;8.33;;
4051;SDS011;2040;50.924;11.604;2023-03-01T05:19:12;13.53;;;7.33;;
4051;SDS011;2040;50.924;11.604;2023-03-01T05:21:40;21.57;;;10.10;;
4051;SDS011;2040;50.924;11.604;2023-03-01T05:24:25;14.50;;;8.27;;
4051;SDS011;2040;50.924;11.604;2023-03-01T05:26:51;18.10;;;8.70;;
4051;SDS011;2040;50.924;11.604;2023-03-01T05:29:18;15.80;;;8.83;;
4051;SDS011;2040;50.924;11.604;2023-03-01T05:31:50;13.70;;;6.87;;
4051;SDS011;2040;50.924;11.604;2023-03-01T05:34:22;15.70;;;8.47;;
4051;SDS011;2040;50.924;11.604;2023-03-01T05:36:53;15.80;;;6.93;;
4051;SDS011;2040;50.924;11.604;2023-03-01T05:39:20;17.43;;;8.97;;
4051;SDS011;2040;50.924;11.604;2023-03-01T05:41:47;19.40;;;9.43;;
4051;SDS011;2040;50.924;11.604;2023-03-01T05:44:13;15.37;;;7.70;;
4051;SDS011;2040;50.924;11.604;2023-03-01T05:46:38;16.37;;;8.33;;
4051;SDS011;2040;50.924;11.604;2023-03-01T05:49:04;16.40;;;8.30;;
4051;SDS011;2040;50.924;11.604;2023-03-01T05:51:30;15.60;;;9.20;;
4051;SDS011;2040;50.924;11.604;2023-03-01T05:53:55;23.93;;;8.43;;
4051;SDS011;2040;50.924;11.604;2023-03-01T05:56:21;20.53;;;9.70;;
4051;SDS011;2040;50.924;11.604;2023-03-01T05:58:47;21.10;;;10.13;;
4051;SDS011;2040;50.924;11.604;2023-03-01T06:01:14;20.13;;;7.90;;
4051;SDS011;2040;50.924;11.604;2023-03-01T06:03:40;24.17;;;10.10;;
4051;SDS011;2040;50.924;11.604;2023-03-01T06:06:06;31.67;;;11.30;;
4051;SDS011;2040;50.924;11.604;2023-03-01T06:08:31;14.90;;;9.57;;
4051;SDS011;2040;50.924;11.604;2023-03-01T06:10:57;18.53;;;9.40;;
4051;SDS011;2040;50.924;11.604;2023-03-01T06:13:22;17.73;;;8.83;;
4051;SDS011;2040;50.924;11.604;2023-03-01T06:15:49;16.47;;;8.93;;
4051;SDS011;2040;50.924;11.604;2023-03-01T06:18:14;18.10;;;9.30;;
4051;SDS011;2040;50.924;11.604;2023-03-01T06:20:40;26.80;;;10.20;;
4051;SDS011;2040;50.924;11.604;2023-03-01T06:23:06;15.03;;;7.00;;
4051;SDS011;2040;50.924;11.604;2023-03-01T06:25:34;15.50;;;9.00;;
4051;SDS011;2040;50.924;11.604;2023-03-01T06:27:59;16.50;;;8.97;;
4051;SDS011;2040;50.924;11.604;2023-03-01T06:30:26;39.73;;;13.30;;
4051;SDS011;2040;50.924;11.604;2023-03-01T06:32:51;26.17;;;11.87;;
4051;SDS011;2040;50.924;11.604;2023-03-01T06:35:18;15.60;;;8.63;;
4051;SDS011;2040;50.924;11.604;2023-03-01T06:37:44;18.80;;;8.80;;
4051;SDS011;2040;50.924;11.604;2023-03-01T06:40:10;21.63;;;10.60;;
4051;SDS011;2040;50.924;11.604;2023-03-01T06:42:37;21.20;;;10.23;;
4051;SDS011;2040;50.924;11.604;2023-03-01T06:45:04;22.90;;;11.10;;
4051;SDS011;2040;50.924;11.604;2023-03-01T06:47:31;24.30;;;9.20;;
4051;SDS011;2040;50.924;11.604;2023-03-01T06:49:58;14.33;;;9.27;;
4051;SDS011;2040;50.924;11.604;2023-03-01T06:52:27;14.83;;;8.07;;
4051;SDS011;2040;50.924;11.604;2023-03-01T06:54:53;18.40;;;10.27;;
4051;SDS011;2040;50.924;11.604;2023-03-01T06:57:19;19.30;;;8.50;;
4051;SDS011;2040;50.924;11.604;2023-03-01T06:59:44;22.60;;;11.40;;
4051;SDS011;2040;50.924;11.604;2023-03-01T07:02:12;20.50;;;10.40;;
4051;SDS011;2040;50.924;11.604;2023-03-01T07:04:38;20.17;;;10.13;;
4051;SDS011;2040;50.924;11.604;2023-03-01T07:07:04;18.33;;;9.53;;
4051;SDS011;2040;50.924;11.604;2023-03-01T07:09:30;26.00;;;10.80;;
4051;SDS011;2040;50.924;11.604;2023-03-01T07:11:55;23.87;;;10.33;;
4051;SDS011;2040;50.924;11.604;2023-03-01T07:14:21;15.13;;;8.23;;
4051;SDS011;2040;50.924;11.604;2023-03-01T07:16:49;16.10;;;9.53;;
4051;SDS011;2040;50.924;11.604;2023-03-01T07:19:15;20.80;;;8.57;;
4051;SDS011;2040;50.924;11.604;2023-03-01T07:21:40;15.83;;;10.37;;
4051;SDS011;2040;50.924;11.604;2023-03-01T07:24:06;24.83;;;9.87;;
4051;SDS011;2040;50.924;11.604;2023-03-01T07:26:32;18.80;;;9.43;;
4051;SDS011;2040;50.924;11.604;2023-03-01T07:28:59;18.50;;;10.30;;
4051;SDS011;2040;50.924;11.604;2023-03-01T07:31:25;24.97;;;9.27;;
4051;SDS011;2040;50.924;11.604;2023-03-01T07:33:52;32.00;;;10.20;;
4051;SDS011;2040;50.924;11.604;2023-03-01T07:36:18;22.33;;;12.30;;
4051;SDS011;2040;50.924;11.604;2023-03-01T07:38:44;22.07;;;10.77;;
4051;SDS011;2040;50.924;11.604;2023-03-01T07:41:09;30.13;;;12.93;;
4051;SDS011;2040;50.924;11.604;2023-03-01T07:43:35;16.97;;;8.33;;
4051;SDS011;2040;50.924;11.604;2023-03-01T07:46:01;24.20;;;9.97;;
4051;SDS011;2040;50.924;11.604;2023-03-01T07:48:27;17.83;;;8.70;;
4051;SDS011;2040;50.924;11.604;2023-03-01T07:50:52;14.90;;;9.67;;
4051;SDS011;2040;50.924;11.604;2023-03-01T07:53:18;13.30;;;7.40;;
4051;SDS011;2040;50.924;11.604;2023-03-01T07:55:43;25.37;;;11.13;;
4051;SDS011;2040;50.924;11.604;2023-03-01T07:58:09;19.67;;;12.50;;
4051;SDS011;2040;50.924;11.604;2023-03-01T08:00:35;22.97;;;10.13;;
4051;SDS011;2040;50.924;11.604;2023-03-01T08:03:01;20.17;;;10.17;;
4051;SDS011;2040;50.924;11.604;2023-03-01T08:05:27;21.30;;;10.50;;
4051;SDS011;2040;50.924;11.604;2023-03-01T08:07:53;22.03;;;9.57;;
4051;SDS011;2040;50.924;11.604;2023-03-01T08:10:19;24.33;;;11.57;;
4051;SDS011;2040;50.924;11.604;2023-03-01T08:12:44;20.67;;;9.70;;
4051;SDS011;2040;50.924;11.604;2023-03-01T08:15:10;22.13;;;9.67;;
4051;SDS011;2040;50.924;11.604;2023-03-01T08:17:36;19.40;;;10.57;;
4051;SDS011;2040;50.924;11.604;2023-03-01T08:20:02;21.17;;;9.57;;
4051;SDS011;2040;50.924;11.604;2023-03-01T08:22:29;21.10;;;10.20;;
4051;SDS011;2040;50.924;11.604;2023-03-01T08:24:54;19.10;;;10.00;;
4051;SDS011;2040;50.924;11.604;2023-03-01T08:27:20;14.20;;;8.40;;
4051;SDS011;2040;50.924;11.604;2023-03-01T08:29:46;26.60;;;9.20;;
4051;SDS011;2040;50.924;11.604;2023-03-01T08:32:12;13.10;;;8.33;;
4051;SDS011;2040;50.924;11.604;2023-03-01T08:34:37;16.30;;;9.13;;
4051;SDS011;2040;50.924;11.604;2023-03-01T08:37:03;17.70;;;9.27;;
4051;SDS011;2040;50.924;11.604;2023-03-01T08:39:28;16.03;;;9.33;;
4051;SDS011;2040;50.924;11.604;2023-03-01T08:41:54;14.13;;;8.57;;
4051;SDS011;2040;50.924;11.604;2023-03-01T08:44:20;12.50;;;8.03;;
4051;SDS011;2040;50.924;11.604;2023-03-01T08:46:46;17.97;;;8.30;;
4051;SDS011;2040;50.924;11.604;2023-03-01T08:49:13;16.17;;;8.87;;
4051;SDS011;2040;50.924;11.604;2023-03-01T08:51:40;15.30;;;7.83;;
4051;SDS011;2040;50.924;11.604;2023-03-01T08:54:07;15.13;;;7.63;;
4051;SDS011;2040;50.924;11.604;2023-03-01T08:56:37;21.10;;;8.73;;
4051;SDS011;2040;50.924;11.604;2023-03-01T08:59:03;12.83;;;7.37;;
4051;SDS011;2040;50.924;11.604;2023-03-01T09:01:28;14.50;;;7.17;;
4051;SDS011;2040;50.924;11.604;2023-03-01T09:03:54;18.43;;;8.17;;
4051;SDS011;2040;50.924;11.604;2023-03-01T09:06:20;11.30;;;7.50;;
4051;SDS011;2040;50.924;11.604;2023-03-01T09:08:46;15.23;;;8.50;;
4051;SDS011;2040;50.924;11.604;2023-03-01T09:11:14;12.70;;;6.80;;
4051;SDS011;2040;50.924;11.604;2023-03-01T09:13:42;12.93;;;7.33;;
4051;SDS011;2040;50.924;11.604;2023-03-01T09:16:08;20.30;;;8.07;;
4051;SDS011;2040;50.924;11.604;2023-03-01T09:18:35;15.33;;;7.97;;
4051;SDS011;2040;50.924;11.604;2023-03-01T09:21:05;13.97;;;9.00;;
4051;SDS011;2040;50.924;11.604;2023-03-01T09:23:39;16.27;;;10.00;;
4051;SDS011;2040;50.924;11.604;2023-03-01T09:26:07;14.13;;;8.80;;
4051;SDS011;2040;50.924;11.604;2023-03-01T09:28:34;11.33;;;7.97;;
4051;SDS011;2040;50.924;11.604;2023-03-01T09:31:01;16.23;;;7.70;;
4051;SDS011;2040;50.924;11.604;2023-03-01T09:33:28;14.30;;;8.30;;
4051;SDS011;2040;50.924;11.604;2023-03-01T09:36:02;21.07;;;9.30;;
4051;SDS011;2040;50.924;11.604;2023-03-01T09:38:29;20.60;;;8.07;;
4051;SDS011;2040;50.924;11.604;2023-03-01T09:40:55;15.90;;;8.27;;
4051;SDS011;2040;50.924;11.604;2023-03-01T09:43:23;17.03;;;7.57;;
4051;SDS011;2040;50.924;11.604;2023-03-01T09:46:08;12.13;;;7.53;;
4051;SDS011;2040;50.924;11.604;2023-03-01T09:48:42;14.10;;;7.43;;
4051;SDS011;2040;50.924;11.604;2023-03-01T09:51:09;11.27;;;7.13;;
4051;SDS011;2040;50.924;11.604;2023-03-01T09:53:42;14.67;;;7.20;;
4051;SDS011;2040;50.924;11.604;2023-03-01T09:56:19;13.47;;;7.53;;
4051;SDS011;2040;50.924;11.604;2023-03-01T09:58:49;13.80;;;6.77;;
4051;SDS011;2040;50.924;11.604;2023-03-01T10:04:00;19.97;;;7.73;;
4051;SDS011;2040;50.924;11.604;2023-03-01T10:06:50;10.37;;;6.93;;
4051;SDS011;2040;50.924;11.604;2023-03-01T10:09:23;14.70;;;6.77;;
4051;SDS011;2040;50.924;11.604;2023-03-01T10:11:50;14.00;;;7.53;;
4051;SDS011;2040;50.924;11.604;2023-03-01T10:14:33;19.50;;;7.40;;
4051;SDS011;2040;50.924;11.604;2023-03-01T10:20:26;14.40;;;8.00;;
4051;SDS011;2040;50.924;11.604;2023-03-01T10:22:58;18.67;;;8.30;;
4051;SDS011;2040;50.924;11.604;2023-03-01T10:26:07;13.10;;;7.00;;
4051;SDS011;2040;50.924;11.604;2023-03-01T10:31:30;14.30;;;7.40;;
4051;SDS011;2040;50.924;11.604;2023-03-01T10:34:08;14.93;;;7.60;;
4051;SDS011;2040;50.924;11.604;2023-03-01T10:36:42;12.53;;;7.37;;
4051;SDS011;2040;50.924;11.604;2023-03-01T10:39:11;15.33;;;7.70;;
4051;SDS011;2040;50.924;11.604;2023-03-01T10:44:59;15.53;;;8.13;;
4051;SDS011;2040;50.924;11.604;2023-03-01T10:47:19;15.47;;;7.17;;
4051;SDS011;2040;50.924;11.604;2023-03-01T10:50:00;14.93;;;6.77;;
4051;SDS011;2040;50.924;11.604;2023-03-01T10:52:37;18.73;;;7.60;;
4051;SDS011;2040;50.924;11.604;2023-03-01T10:57:40;18.27;;;8.03;;
4051;SDS011;2040;50.924;11.604;2023-03-01T11:02:50;14.43;;;7.80;;
4051;SDS011;2040;50.924;11.604;2023-03-01T11:05:27;15.70;;;7.43;;
4051;SDS011;2040;50.924;11.604;2023-03-01T11:07:58;15.03;;;8.73;;
4051;SDS011;2040;50.924;11.604;2023-03-01T11:10:27;13.63;;;7.07;;
4051;SDS011;2040;50.924;11.604;2023-03-01T11:13:05;14.50;;;7.97;;
4051;SDS011;2040;50.924;11.604;2023-03-01T11:15:33;14.10;;;6.17;;
4051;SDS011;2040;50.924;11.604;2023-03-01T11:17:59;16.53;;;7.77;;
4051;SDS011;2040;50.924;11.604;2023-03-01T11:20:34;12.43;;;6.43;;
4051;SDS011;2040;50.924;11.604;2023-03-01T11:23:03;12.70;;;7.90;;
4051;SDS011;2040;50.924;11.604;2023-03-01T11:25:54;14.73;;;7.37;;
4051;SDS011;2040;50.924;11.604;2023-03-01T11:28:22;15.10;;;7.83;;
4051;SDS011;2040;50.924;11.604;2023-03-01T11:30:53;13.57;;;7.23;;
4051;SDS011;2040;50.924;11.604;2023-03-01T11:33:38;13.60;;;7.30;;
4051;SDS011;2040;50.924;11.604;2023-03-01T11:39:23;10.77;;;6.70;;
4051;SDS011;2040;50.924;11.604;2023-03-01T11:44:42;18.23;;;8.30;;
4051;SDS011;2040;50.924;11.604;2023-03-01T11:52:45;14.97;;;8.57;;
4051;SDS011;2040;50.924;11.604;2023-03-01T11:57:57;14.87;;;6.90;;
4051;SDS011;2040;50.924;11.604;2023-03-01T12:03:23;16.93;;;7.50;;
4051;SDS011;2040;50.924;11.604;2023-03-01T12:08:38;17.10;;;8.37;;
4051;SDS011;2040;50.924;11.604;2023-03-01T12:14:17;13.70;;;8.07;;
4051;SDS011;2040;50.924;11.604;2023-03-01T12:17:15;16.03;;;9.33;;
4051;SDS011;2040;50.924;11.604;2023-03-01T12:23:02;13.77;;;8.13;;
4051;SDS011;2040;50.924;11.604;2023-03-01T12:29:06;14.73;;;8.63;;
4051;SDS011;2040;50.924;11.604;2023-03-01T12:31:59;13.50;;;8.10;;
4051;SDS011;2040;50.924;11.604;2023-03-01T12:37:29;12.33;;;6.93;;
4051;SDS011;2040;50.924;11.604;2023-03-01T12:46:20;18.43;;;7.93;;
4051;SDS011;2040;50.924;11.604;2023-03-01T12:48:34;12.57;;;7.57;;
4051;SDS011;2040;50.924;11.604;2023-03-01T12:51:13;18.03;;;8.17;;
4051;SDS011;2040;50.924;11.604;2023-03-01T12:56:10;20.10;;;8.40;;
4051;SDS011;2040;50.924;11.604;2023-03-01T12:58:48;16.40;;;7.03;;
4051;SDS011;2040;50.924;11.604;2023-03-01T13:12:42;12.73;;;7.60;;
4051;SDS011;2040;50.924;11.604;2023-03-01T13:15:35;18.07;;;9.20;;
4051;SDS011;2040;50.924;11.604;2023-03-01T13:20:45;18.77;;;7.90;;
4051;SDS011;2040;50.924;11.604;2023-03-01T13:31:00;12.17;;;6.63;;
4051;SDS011;2040;50.924;11.604;2023-03-01T13:35:58;17.80;;;7.17;;
4051;SDS011;2040;50.924;11.604;2023-03-01T13:38:38;11.73;;;6.90;;
4051;SDS011;2040;50.924;11.604;2023-03-01T13:41:16;17.37;;;6.43;;
4051;SDS011;2040;50.924;11.604;2023-03-01T13:44:02;10.60;;;6.33;;
4051;SDS011;2040;50.924;11.604;2023-03-01T13:46:50;12.50;;;6.70;;
4051;SDS011;2040;50.924;11.604;2023-03-01T13:49:53;13.13;;;6.70;;
4051;SDS011;2040;50.924;11.604;2023-03-01T13:55:05;12.83;;;6.20;;
4051;SDS011;2040;50.924;11.604;2023-03-01T13:58:12;14.20;;;7.03;;
4051;SDS011;2040;50.924;11.604;2023-03-01T14:00:40;12.00;;;6.90;;
4051;SDS011;2040;50.924;11.604;2023-03-01T14:03:10;15.03;;;6.97;;
4051;SDS011;2040;50.924;11.604;2023-03-01T14:05:57;16.80;;;7.87;;
4051;SDS011;2040;50.924;11.604;2023-03-01T14:08:32;10.60;;;5.73;;
4051;SDS011;2040;50.924;11.604;2023-03-01T14:11:01;11.30;;;6.80;;
4051;SDS011;2040;50.924;11.604;2023-03-01T14:21:49;18.27;;;6.70;;
4051;SDS011;2040;50.924;11.604;2023-03-01T14:24:32;15.47;;;7.10;;
4051;SDS011;2040;50.924;11.604;2023-03-01T14:27:00;13.17;;;7.00;;
4051;SDS011;2040;50.924;11.604;2023-03-01T14:29:37;10.70;;;6.07;;
4051;SDS011;2040;50.924;11.604;2023-03-01T14:34:45;12.77;;;6.10;;
4051;SDS011;2040;50.924;11.604;2023-03-01T14:37:26;8.30;;;5.73;;
4051;SDS011;2040;50.924;11.604;2023-03-01T14:40:00;10.20;;;6.27;;
4051;SDS011;2040;50.924;11.604;2023-03-01T14:42:28;10.13;;;5.33;;
4051;SDS011;2040;50.924;11.604;2023-03-01T14:44:58;12.60;;;6.60;;
4051;SDS011;2040;50.924;11.604;2023-03-01T14:47:27;11.67;;;6.40;;
4051;SDS011;2040;50.924;11.604;2023-03-01T14:52:31;11.83;;;6.00;;
4051;SDS011;2040;50.924;11.604;2023-03-01T14:55:09;10.60;;;6.57;;
4051;SDS011;2040;50.924;11.604;2023-03-01T14:57:43;11.73;;;5.70;;
4051;SDS011;2040;50.924;11.604;2023-03-01T15:00:10;11.17;;;6.23;;
4051;SDS011;2040;50.924;11.604;2023-03-01T15:02:53;12.47;;;7.23;;
4051;SDS011;2040;50.924;11.604;2023-03-01T15:05:24;10.93;;;6.10;;
4051;SDS011;2040;50.924;11.604;2023-03-01T15:07:53;12.40;;;6.00;;
4051;SDS011;2040;50.924;11.604;2023-03-01T15:10:22;14.37;;;6.37;;
4051;SDS011;2040;50.924;11.604;2023-03-01T15:12:50;11.13;;;6.23;;
4051;SDS011;2040;50.924;11.604;2023-03-01T15:18:22;12.07;;;6.37;;
4051;SDS011;2040;50.924;11.604;2023-03-01T15:20:52;14.77;;;5.80;;
4051;SDS011;2040;50.924;11.604;2023-03-01T15:23:28;12.10;;;6.70;;
4051;SDS011;2040;50.924;11.604;2023-03-01T15:25:55;12.37;;;6.00;;
4051;SDS011;2040;50.924;11.604;2023-03-01T15:28:26;11.83;;;6.97;;
4051;SDS011;2040;50.924;11.604;2023-03-01T15:31:19;15.40;;;7.43;;
4051;SDS011;2040;50.924;11.604;2023-03-01T15:33:46;11.40;;;6.33;;
4051;SDS011;2040;50.924;11.604;2023-03-01T15:39:26;7.50;;;4.80;;
4051;SDS011;2040;50.924;11.604;2023-03-01T15:41:56;13.17;;;6.30;;
4051;SDS011;2040;50.924;11.604;2023-03-01T15:44:29;10.87;;;5.83;;
4051;SDS011;2040;50.924;11.604;2023-03-01T15:46:56;14.60;;;7.27;;
4051;SDS011;2040;50.924;11.604;2023-03-01T15:49:39;10.40;;;6.70;;
4051;SDS011;2040;50.924;11.604;2023-03-01T15:52:11;11.57;;;6.30;;
4051;SDS011;2040;50.924;11.604;2023-03-01T15:54:46;14.63;;;7.03;;
4051;SDS011;2040;50.924;11.604;2023-03-01T15:57:12;15.20;;;7.33;;
4051;SDS011;2040;50.924;11.604;2023-03-01T15:59:39;14.33;;;7.43;;
4051;SDS011;2040;50.924;11.604;2023-03-01T16:02:11;14.10;;;7.43;;
4051;SDS011;2040;50.924;11.604;2023-03-01T16:04:38;14.60;;;8.07;;
4051;SDS011;2040;50.924;11.604;2023-03-01T16:07:04;14.33;;;7.10;;
4051;SDS011;2040;50.924;11.604;2023-03-01T16:09:30;13.20;;;7.70;;
4051;SDS011;2040;50.924;11.604;2023-03-01T16:11:56;15.30;;;8.53;;
4051;SDS011;2040;50.924;11.604;2023-03-01T16:14:21;17.70;;;7.57;;
4051;SDS011;2040;50.924;11.604;2023-03-01T16:16:47;16.90;;;7.87;;
4051;SDS011;2040;50.924;11.604;2023-03-01T16:19:13;11.53;;;6.40;;
4051;SDS011;2040;50.924;11.604;2023-03-01T16:21:39;16.30;;;8.03;;
4051;SDS011;2040;50.924;11.604;2023-03-01T16:24:05;12.30;;;6.83;;
4051;SDS011;2040;50.924;11.604;2023-03-01T16:26:31;16.27;;;7.07;;
4051;SDS011;2040;50.924;11.604;2023-03-01T16:28:57;13.07;;;7.00;;
4051;SDS011;2040;50.924;11.604;2023-03-01T16:31:23;11.40;;;6.00;;
4051;SDS011;2040;50.924;11.604;2023-03-01T16:33:52;14.90;;;5.77;;
4051;SDS011;2040;50.924;11.604;2023-03-01T16:36:19;9.90;;;6.30;;
4051;SDS011;2040;50.924;11.604;2023-03-01T16:38:48;13.90;;;5.40;;
4051;SDS011;2040;50.924;11.604;2023-03-01T16:41:15;12.57;;;6.37;;
4051;SDS011;2040;50.924;11.604;2023-03-01T16:43:42;19.10;;;6.30;;
4051;SDS011;2040;50.924;11.604;2023-03-01T16:46:22;7.40;;;4.00;;
4051;SDS011;2040;50.924;11.604;2023-03-01T16:48:49;10.90;;;5.87;;
4051;SDS011;2040;50.924;11.604;2023-03-01T16:51:16;10.40;;;5.73;;
4051;SDS011;2040;50.924;11.604;2023-03-01T16:53:42;9.30;;;4.80;;
4051;SDS011;2040;50.924;11.604;2023-03-01T16:56:09;13.90;;;6.07;;